Time;durP1;ratioP1;P1;durP2;ratioP2;P2;SDS_P1;SDS_P2;PMS_P1;PMS_P2;Temp;Humidity;BMP_temperature;BMP_pressure;BME280_temperature;BME280_humidity;BME280_pressure;Samples;Min_cycle;Max_cycle;Signal;HPM_P1;HPM_P2
2023/03/16 00:00:44;;;;;;;6.60;4.05;;;11.80;84.10;;;;;;5055262;28;20144;-73
2023/03/16 00:03:10;;;;;;;9.27;4.13;;;11.80;84.20;;;;;;5055261;28;20021;-71
2023/03/16 00:05:37;;;;;;;6.38;3.83;;;11.80;84.30;;;;;;5055304;28;20495;-71
2023/03/16 00:08:03;;;;;;;5.90;3.53;;;11.70;84.50;;;;;;5055094;28;20382;-74
2023/03/16 00:10:29;;;;;;;8.13;4.20;;;11.80;84.60;;;;;;5055012;28;20021;-72
2023/03/16 00:12:55;;;;;;;7.40;3.88;;;11.80;84.80;;;;;;5055046;28;20041;-72
2023/03/16 00:15:21;;;;;;;5.60;3.97;;;11.80;84.80;;;;;;5054519;28;20045;-72
2023/03/16 00:17:47;;;;;;;7.22;4.13;;;11.80;84.90;;;;;;5055182;28;20064;-71
2023/03/16 00:20:17;;;;;;;7.78;4.00;;;11.80;84.90;;;;;;5054859;28;20017;-72
2023/03/16 00:22:43;;;;;;;5.72;3.58;;;11.80;85.20;;;;;;5054696;28;20025;-75
2023/03/16 00:25:11;;;;;;;7.43;4.18;;;11.70;85.30;;;;;;5054851;28;20537;-71
2023/03/16 00:27:37;;;;;;;7.22;3.30;;;11.70;85.30;;;;;;5053796;28;20017;-71
2023/03/16 00:30:03;;;;;;;5.80;3.92;;;11.70;85.80;;;;;;5053611;28;20492;-71
2023/03/16 00:32:34;;;;;;;6.97;4.38;;;11.80;86.30;;;;;;5054678;28;20401;-71
2023/03/16 00:35:01;;;;;;;5.65;3.92;;;11.70;86.60;;;;;;5054449;28;20044;-72
2023/03/16 00:37:27;;;;;;;7.15;3.90;;;11.70;87.60;;;;;;5054572;28;20082;-72
2023/03/16 00:39:57;;;;;;;5.88;3.70;;;11.70;87.30;;;;;;5054843;28;20047;-71
2023/03/16 00:42:28;;;;;;;5.97;3.95;;;11.70;87.60;;;;;;5054722;28;20017;-73
2023/03/16 00:44:58;;;;;;;7.35;3.95;;;11.70;88.00;;;;;;5054205;28;20021;-71
2023/03/16 00:47:33;;;;;;;7.53;3.92;;;11.70;88.50;;;;;;5054688;28;20036;-72
2023/03/16 00:50:00;;;;;;;9.32;3.83;;;11.70;88.60;;;;;;5054398;28;20477;-73
2023/03/16 00:52:27;;;;;;;7.47;3.65;;;11.70;88.70;;;;;;5054105;28;20033;-74
2023/03/16 00:54:54;;;;;;;9.23;3.88;;;11.70;89.00;;;;;;5054274;28;20017;-71
2023/03/16 00:57:22;;;;;;;5.15;3.40;;;11.70;89.00;;;;;;5054334;28;20116;-71
2023/03/16 00:59:48;;;;;;;6.80;4.00;;;11.70;89.30;;;;;;5054129;28;20078;-71
2023/03/16 01:02:15;;;;;;;7.35;3.72;;;11.70;89.50;;;;;;5054262;28;20103;-71
2023/03/16 01:04:41;;;;;;;5.13;3.58;;;11.70;89.60;;;;;;5054086;28;20028;-71
2023/03/16 01:07:11;;;;;;;7.20;3.90;;;11.60;89.40;;;;;;5053873;28;20039;-73
2023/03/16 01:09:37;;;;;;;7.22;3.67;;;11.60;89.70;;;;;;5054088;28;20493;-72
2023/03/16 01:12:05;;;;;;;7.63;3.55;;;11.60;90.00;;;;;;5054019;28;20090;-72
2023/03/16 01:14:33;;;;;;;6.95;3.42;;;11.60;90.00;;;;;;5053757;28;20025;-73
2023/03/16 01:17:00;;;;;;;6.55;3.40;;;11.60;90.00;;;;;;5054334;28;20029;-71
2023/03/16 01:19:25;;;;;;;6.80;3.50;;;11.60;90.10;;;;;;5054086;28;20021;-71
2023/03/16 01:21:51;;;;;;;5.38;3.10;;;11.60;90.00;;;;;;5053447;28;20036;-74
2023/03/16 01:24:17;;;;;;;5.95;3.25;;;11.60;90.10;;;;;;5053765;28;20028;-71
2023/03/16 01:26:43;;;;;;;9.95;3.50;;;11.60;90.20;;;;;;5053748;28;20060;-73
2023/03/16 01:29:11;;;;;;;9.15;3.80;;;11.60;90.20;;;;;;5053682;28;20029;-74
2023/03/16 01:31:36;;;;;;;3.80;3.08;;;11.60;90.20;;;;;;5053297;28;20115;-74
2023/03/16 01:34:02;;;;;;;6.78;2.92;;;11.60;90.30;;;;;;5053565;28;20100;-71
2023/03/16 01:36:29;;;;;;;7.97;3.25;;;11.60;90.40;;;;;;5053210;28;20412;-71
2023/03/16 01:38:54;;;;;;;5.15;3.20;;;11.50;90.50;;;;;;5053991;28;20032;-73
2023/03/16 01:41:20;;;;;;;5.50;2.85;;;11.60;90.60;;;;;;5053905;28;20374;-72
2023/03/16 01:43:46;;;;;;;5.63;2.75;;;11.60;90.90;;;;;;5053137;28;20386;-72
2023/03/16 01:46:19;;;;;;;4.68;3.47;;;11.50;90.70;;;;;;5053179;28;20470;-74
2023/03/16 01:49:11;;;;;;;;;;;11.50;90.80;;;;;;5053816;28;20036;-73
2023/03/16 01:51:58;;;;;;;4.82;2.90;;;11.50;90.80;;;;;;5050271;28;20003;-74
2023/03/16 01:54:44;;;;;;;5.97;2.67;;;11.50;90.90;;;;;;5053280;28;20483;-72
2023/03/16 01:57:20;;;;;;;5.45;2.92;;;11.50;90.90;;;;;;5053135;28;20021;-71
2023/03/16 01:59:55;;;;;;;3.63;2.80;;;11.50;91.00;;;;;;5053345;28;20033;-74
2023/03/16 02:02:25;;;;;;;5.70;3.03;;;11.50;91.00;;;;;;5053041;28;20020;-74
2023/03/16 02:05:11;;;;;;;4.68;2.75;;;11.50;91.10;;;;;;5052638;28;20098;-72
2023/03/16 02:07:42;;;;;;;6.32;3.03;;;11.40;91.20;;;;;;5053135;28;20067;-71
2023/03/16 02:10:09;;;;;;;6.03;2.70;;;11.40;91.30;;;;;;5053246;28;20017;-73
2023/03/16 02:12:35;;;;;;;4.88;2.88;;;11.50;91.30;;;;;;5052757;28;20043;-71
2023/03/16 02:15:00;;;;;;;5.85;2.90;;;11.40;91.60;;;;;;5052871;28;20108;-72
2023/03/16 02:17:30;;;;;;;5.93;2.78;;;11.40;91.60;;;;;;5052758;28;20071;-74
2023/03/16 02:20:08;;;;;;;5.47;2.70;;;11.40;91.60;;;;;;5052473;28;20024;-74
2023/03/16 02:22:38;;;;;;;4.75;2.60;;;11.40;91.70;;;;;;5052697;28;20063;-74
2023/03/16 02:25:04;;;;;;;11.27;2.88;;;11.40;91.80;;;;;;5052747;28;20021;-74
2023/03/16 02:27:43;;;;;;;4.10;2.38;;;11.40;91.80;;;;;;5052601;28;20029;-74
2023/03/16 02:30:18;;;;;;;4.72;2.38;;;11.40;91.90;;;;;;5052865;28;20066;-73
2023/03/16 02:32:46;;;;;;;8.57;2.75;;;11.40;92.00;;;;;;5052148;28;20037;-74
2023/03/16 02:35:12;;;;;;;5.10;2.60;;;11.40;92.00;;;;;;5052667;28;20110;-74
2023/03/16 02:37:39;;;;;;;4.53;2.30;;;11.40;91.90;;;;;;5052646;28;20482;-75
2023/03/16 02:40:37;;;;;;;5.63;2.10;;;11.40;92.00;;;;;;5052291;28;20025;-73
2023/03/16 02:43:11;;;;;;;5.15;2.28;;;11.40;92.10;;;;;;5040167;28;20567;-73
2023/03/16 02:45:44;;;;;;;5.22;2.47;;;11.40;92.10;;;;;;5052443;28;20036;-72
2023/03/16 02:48:21;;;;;;;4.65;1.95;;;11.30;92.20;;;;;;5052265;28;20033;-75
2023/03/16 02:50:50;;;;;;;6.68;2.33;;;11.40;92.20;;;;;;5052673;28;20033;-70
2023/03/16 02:53:16;;;;;;;6.43;2.22;;;11.40;92.40;;;;;;5052406;28;20036;-71
2023/03/16 02:55:43;;;;;;;5.32;2.17;;;11.40;92.40;;;;;;5052438;28;20466;-74
2023/03/16 02:58:10;;;;;;;4.90;2.05;;;11.30;92.40;;;;;;5051165;28;20029;-74
2023/03/16 03:00:37;;;;;;;5.28;1.88;;;11.30;92.50;;;;;;5052409;28;20024;-74
2023/03/16 03:03:04;;;;;;;4.25;1.90;;;11.30;92.60;;;;;;5051848;28;20024;-72
2023/03/16 03:05:29;;;;;;;9.52;2.25;;;11.40;92.60;;;;;;5052234;28;20029;-75
2023/03/16 03:07:55;;;;;;;2.88;1.60;;;11.30;92.70;;;;;;5052446;28;20032;-73
2023/03/16 03:10:21;;;;;;;2.83;1.83;;;11.30;92.80;;;;;;5052439;28;20406;-73
2023/03/16 03:12:48;;;;;;;5.57;2.38;;;11.30;93.30;;;;;;5052106;28;20029;-72
2023/03/16 03:15:15;;;;;;;5.15;2.15;;;11.30;92.80;;;;;;5052471;28;20033;-71
2023/03/16 03:17:41;;;;;;;5.43;1.88;;;11.30;92.90;;;;;;5052026;28;20033;-73
2023/03/16 03:20:26;;;;;;;5.20;1.60;;;11.20;92.90;;;;;;5052408;28;20111;-75
2023/03/16 03:22:52;;;;;;;4.53;2.08;;;11.30;92.80;;;;;;5052316;28;20112;-74
2023/03/16 03:25:19;;;;;;;6.00;2.05;;;11.30;93.00;;;;;;5052874;28;20108;-75
2023/03/16 03:27:46;;;;;;;4.25;1.92;;;11.20;93.00;;;;;;5052029;28;20470;-75
2023/03/16 03:30:15;;;;;;;6.15;2.42;;;11.20;93.10;;;;;;5052095;28;20029;-74
2023/03/16 03:32:40;;;;;;;4.55;1.80;;;11.30;93.20;;;;;;5051667;28;20033;-75
2023/03/16 03:35:07;;;;;;;4.78;1.70;;;11.20;93.30;;;;;;5051920;28;20075;-74
2023/03/16 03:37:33;;;;;;;7.78;2.10;;;11.20;93.30;;;;;;5051991;28;20025;-74
2023/03/16 03:39:58;;;;;;;4.03;1.90;;;11.20;93.20;;;;;;5052248;28;20584;-72
2023/03/16 03:42:24;;;;;;;5.55;1.60;;;11.20;93.30;;;;;;5052051;28;20048;-72
2023/03/16 03:44:51;;;;;;;4.82;1.70;;;11.20;93.20;;;;;;5051764;28;20017;-73
2023/03/16 03:47:20;;;;;;;3.95;2.03;;;11.20;93.20;;;;;;5051608;28;20124;-72
2023/03/16 03:49:45;;;;;;;6.15;1.98;;;11.20;93.20;;;;;;5052010;28;20048;-74
2023/03/16 03:52:11;;;;;;;4.55;1.42;;;11.20;93.20;;;;;;5054932;28;20072;-71
2023/03/16 03:54:36;;;;;;;6.05;1.73;;;11.20;93.20;;;;;;5055340;28;20021;-74
2023/03/16 03:57:03;;;;;;;5.55;1.92;;;11.10;93.20;;;;;;5055581;28;20044;-71
2023/03/16 03:59:29;;;;;;;3.65;1.67;;;11.20;93.20;;;;;;5055457;28;20045;-71
2023/03/16 04:01:55;;;;;;;6.25;1.70;;;11.20;93.20;;;;;;5055125;28;20029;-73
2023/03/16 04:04:20;;;;;;;4.88;1.60;;;11.20;93.20;;;;;;5055184;28;20032;-72
2023/03/16 04:06:46;;;;;;;4.32;1.73;;;11.10;93.30;;;;;;5055353;28;20044;-73
2023/03/16 04:09:12;;;;;;;3.75;1.50;;;11.20;93.20;;;;;;5055115;28;20473;-71
2023/03/16 04:11:38;;;;;;;3.50;1.85;;;11.20;93.20;;;;;;5055197;28;20478;-72
2023/03/16 04:14:04;;;;;;;4.15;1.58;;;11.20;93.30;;;;;;5055066;28;20039;-71
2023/03/16 04:16:30;;;;;;;6.03;1.67;;;11.20;93.20;;;;;;5055313;28;20025;-75
2023/03/16 04:18:56;;;;;;;4.32;1.45;;;11.20;93.10;;;;;;5055042;28;20039;-73
2023/03/16 04:21:23;;;;;;;5.07;1.52;;;11.10;92.90;;;;;;5055076;28;20025;-71
2023/03/16 04:23:53;;;;;;;7.55;1.75;;;11.20;92.80;;;;;;5047302;28;20040;-72
2023/03/16 04:26:19;;;;;;;3.45;1.20;;;11.10;92.90;;;;;;5041627;28;20021;-74
2023/03/16 04:28:45;;;;;;;7.40;2.05;;;11.10;93.00;;;;;;5033047;28;20291;-73
2023/03/16 04:31:10;;;;;;;4.53;1.63;;;11.10;92.80;;;;;;5033396;28;20021;-71
2023/03/16 04:33:37;;;;;;;4.63;1.88;;;11.10;92.80;;;;;;5034883;28;20041;-74
2023/03/16 04:36:04;;;;;;;4.03;1.80;;;11.10;93.00;;;;;;5036601;28;20025;-71
2023/03/16 04:38:34;;;;;;;6.78;1.88;;;11.10;92.80;;;;;;5043285;28;20044;-73
2023/03/16 04:41:04;;;;;;;6.40;1.90;;;11.10;92.80;;;;;;5034231;28;20087;-74
2023/03/16 04:43:33;;;;;;;6.25;1.77;;;11.10;92.80;;;;;;5034153;28;20063;-71
2023/03/16 04:46:00;;;;;;;5.63;1.55;;;11.10;92.80;;;;;;5034152;28;20025;-73
2023/03/16 04:48:27;;;;;;;4.82;1.60;;;11.10;92.60;;;;;;5034752;28;20034;-72
2023/03/16 04:50:53;;;;;;;5.03;1.42;;;11.00;92.80;;;;;;5034245;28;20402;-73
2023/03/16 04:53:18;;;;;;;5.22;1.40;;;11.00;92.70;;;;;;5034231;28;20040;-71
2023/03/16 04:55:45;;;;;;;3.65;1.52;;;11.10;92.60;;;;;;5034377;28;20025;-73
2023/03/16 04:58:12;;;;;;;5.82;1.77;;;11.00;92.60;;;;;;5034271;28;20056;-74
2023/03/16 05:00:39;;;;;;;6.05;1.73;;;11.00;92.50;;;;;;5034261;28;20025;-74
2023/03/16 05:03:05;;;;;;;4.68;1.65;;;11.10;92.40;;;;;;5034016;28;20044;-72
2023/03/16 05:05:31;;;;;;;5.40;1.40;;;11.20;91.30;;;;;;5044380;28;20029;-72
2023/03/16 05:07:56;;;;;;;3.13;1.23;;;11.20;90.90;;;;;;5044717;28;20075;-71
2023/03/16 05:10:22;;;;;;;4.10;1.45;;;11.20;90.80;;;;;;5034028;28;20104;-74
2023/03/16 05:12:48;;;;;;;3.40;1.15;;;11.20;90.80;;;;;;5049313;28;20125;-71
2023/03/16 05:15:13;;;;;;;2.72;1.48;;;11.10;90.80;;;;;;5053716;28;20386;-74
2023/03/16 05:17:42;;;;;;;2.50;1.10;;;11.20;90.90;;;;;;5053777;28;20112;-72
2023/03/16 05:20:12;;;;;;;4.45;1.50;;;11.20;90.80;;;;;;5053817;28;20074;-72
2023/03/16 05:22:42;;;;;;;4.47;1.00;;;11.20;90.70;;;;;;5053666;28;20044;-74
2023/03/16 05:25:13;;;;;;;2.90;1.30;;;11.10;90.80;;;;;;5053463;28;20029;-71
2023/03/16 05:27:40;;;;;;;4.28;1.42;;;11.10;90.70;;;;;;5053678;28;20070;-73
2023/03/16 05:30:08;;;;;;;6.35;1.20;;;11.10;90.80;;;;;;5053541;28;20061;-71
2023/03/16 05:32:33;;;;;;;4.25;1.30;;;11.10;90.70;;;;;;5053622;28;20036;-71
2023/03/16 05:34:59;;;;;;;4.93;1.17;;;11.10;90.80;;;;;;5041924;28;20025;-72
2023/03/16 05:37:24;;;;;;;1.80;1.00;;;11.10;90.70;;;;;;5034483;28;20020;-72
2023/03/16 05:39:50;;;;;;;5.35;1.52;;;11.10;91.00;;;;;;5052552;28;20114;-74
2023/03/16 05:42:15;;;;;;;7.22;1.42;;;11.10;90.70;;;;;;5052811;28;20384;-74
2023/03/16 05:44:41;;;;;;;3.00;1.42;;;11.10;90.70;;;;;;5053531;28;20473;-71
2023/03/16 05:47:06;;;;;;;5.25;1.88;;;11.10;90.60;;;;;;5052618;28;20037;-72
2023/03/16 05:49:32;;;;;;;3.50;1.10;;;11.10;90.60;;;;;;5053419;28;20021;-73
2023/03/16 05:51:58;;;;;;;2.88;1.15;;;11.10;90.70;;;;;;5052817;28;20579;-72
2023/03/16 05:54:23;;;;;;;3.92;1.25;;;11.00;90.60;;;;;;5051371;28;20513;-75
2023/03/16 05:56:49;;;;;;;2.30;1.30;;;11.00;90.50;;;;;;5052416;28;20053;-75
2023/03/16 05:59:16;;;;;;;2.78;1.55;;;11.10;90.50;;;;;;5052964;28;20400;-71
2023/03/16 06:01:42;;;;;;;3.92;1.23;;;11.00;90.40;;;;;;5045141;28;20025;-74
2023/03/16 06:04:08;;;;;;;2.22;0.88;;;11.10;90.60;;;;;;5037055;28;20043;-71
2023/03/16 06:06:33;;;;;;;3.03;1.15;;;11.00;90.50;;;;;;5032296;28;20496;-71
2023/03/16 06:09:00;;;;;;;4.13;1.45;;;11.00;90.50;;;;;;5032379;28;20025;-71
2023/03/16 06:11:25;;;;;;;3.28;1.17;;;11.00;90.50;;;;;;5032452;28;20125;-71
2023/03/16 06:13:51;;;;;;;3.95;1.15;;;11.00;90.40;;;;;;5044369;28;20112;-74
2023/03/16 06:16:16;;;;;;;4.85;1.10;;;11.00;90.50;;;;;;5052626;28;20060;-72
2023/03/16 06:18:42;;;;;;;2.80;1.20;;;11.00;90.40;;;;;;5048016;28;20025;-75
2023/03/16 06:21:08;;;;;;;3.17;1.33;;;11.00;90.40;;;;;;5044057;28;20518;-72
2023/03/16 06:23:34;;;;;;;3.95;1.30;;;11.00;90.40;;;;;;5042015;28;20029;-71
2023/03/16 06:25:59;;;;;;;3.13;1.02;;;11.00;90.40;;;;;;5045638;28;20024;-72
2023/03/16 06:28:25;;;;;;;2.92;1.42;;;11.00;90.40;;;;;;5053275;28;20039;-72
2023/03/16 06:30:56;;;;;;;2.72;1.45;;;11.00;90.30;;;;;;5046293;28;20481;-73
2023/03/16 06:33:23;;;;;;;2.75;1.20;;;11.00;90.40;;;;;;5039217;28;20064;-74
2023/03/16 06:35:50;;;;;;;3.65;1.15;;;11.00;90.30;;;;;;5048604;28;20082;-71
2023/03/16 06:38:16;;;;;;;2.50;0.88;;;11.00;90.40;;;;;;5047956;28;20508;-72
2023/03/16 06:40:42;;;;;;;3.03;0.93;;;11.00;90.20;;;;;;5046659;28;20024;-73
2023/03/16 06:43:07;;;;;;;2.78;1.05;;;11.00;90.20;;;;;;5047863;28;20116;-71
2023/03/16 06:45:33;;;;;;;2.85;1.52;;;11.10;90.10;;;;;;5049635;28;20025;-74
2023/03/16 06:47:59;;;;;;;3.20;1.00;;;11.10;90.10;;;;;;5047215;28;20389;-72
2023/03/16 06:50:25;;;;;;;5.10;1.20;;;11.00;90.50;;;;;;5046983;28;20029;-70
2023/03/16 06:52:51;;;;;;;5.57;1.27;;;11.00;90.50;;;;;;5043015;28;20406;-71
2023/03/16 06:55:16;;;;;;;4.43;1.30;;;11.00;90.50;;;;;;5048994;28;20092;-72
2023/03/16 06:57:42;;;;;;;5.18;1.25;;;10.90;90.40;;;;;;5049063;28;20025;-70
2023/03/16 07:00:10;;;;;;;4.80;1.25;;;11.00;90.40;;;;;;5043817;28;20493;-70
2023/03/16 07:02:38;;;;;;;6.13;1.45;;;10.90;90.50;;;;;;5049361;28;20028;-70
2023/03/16 07:05:04;;;;;;;3.15;1.45;;;10.90;90.50;;;;;;5047194;28;20378;-71
2023/03/16 07:07:30;;;;;;;4.60;1.23;;;10.90;91.30;;;;;;5042643;28;20049;-70
2023/03/16 07:09:55;;;;;;;4.18;1.60;;;10.90;90.80;;;;;;5043377;28;20053;-70
2023/03/16 07:12:21;;;;;;;6.80;1.83;;;11.00;90.60;;;;;;5044107;28;20041;-71
2023/03/16 07:14:46;;;;;;;4.40;1.60;;;11.00;90.60;;;;;;5041954;28;20075;-70
2023/03/16 07:17:12;;;;;;;6.28;1.35;;;11.00;90.70;;;;;;5050844;28;20044;-70
2023/03/16 07:19:38;;;;;;;3.05;1.10;;;11.00;91.10;;;;;;5046932;28;20494;-71
2023/03/16 07:22:03;;;;;;;7.75;1.75;;;11.10;91.20;;;;;;5051819;28;20059;-71
2023/03/16 07:24:29;;;;;;;3.83;1.23;;;11.10;90.60;;;;;;5050675;28;20481;-74
2023/03/16 07:26:55;;;;;;;4.32;1.35;;;11.10;90.40;;;;;;5056055;28;20017;-70
2023/03/16 07:29:20;;;;;;;2.53;0.90;;;11.10;90.30;;;;;;5048263;28;20331;-70
2023/03/16 07:31:46;;;;;;;3.42;1.30;;;11.10;90.20;;;;;;5050935;28;20033;-71
2023/03/16 07:34:12;;;;;;;4.10;1.42;;;11.10;90.30;;;;;;5050983;28;20033;-71
2023/03/16 07:36:37;;;;;;;5.10;1.35;;;11.10;90.30;;;;;;5050552;28;20092;-73
2023/03/16 07:39:05;;;;;;;7.07;1.63;;;11.20;90.40;;;;;;5051990;28;20107;-72
2023/03/16 07:41:30;;;;;;;4.57;1.40;;;11.20;90.30;;;;;;5040971;28;20057;-73
2023/03/16 07:43:57;;;;;;;2.85;1.20;;;11.30;90.40;;;;;;5052442;28;20125;-74
2023/03/16 07:46:23;;;;;;;4.53;1.30;;;11.30;90.20;;;;;;5052300;28;20131;-73
2023/03/16 07:48:49;;;;;;;6.60;1.27;;;11.30;90.50;;;;;;5053992;28;20021;-75
2023/03/16 07:51:15;;;;;;;6.13;1.42;;;11.40;90.70;;;;;;5054687;28;20122;-72
2023/03/16 07:53:41;;;;;;;4.90;1.08;;;11.40;90.60;;;;;;5045615;28;20064;-73
2023/03/16 07:56:07;;;;;;;4.45;1.48;;;11.50;90.30;;;;;;5051153;28;20032;-74
2023/03/16 07:58:32;;;;;;;9.15;1.70;;;11.60;90.40;;;;;;5043282;28;20552;-75
2023/03/16 08:00:59;;;;;;;5.13;1.48;;;11.60;90.30;;;;;;5042124;28;20540;-73
2023/03/16 08:03:25;;;;;;;5.10;1.10;;;11.70;90.30;;;;;;5053528;28;20036;-73
2023/03/16 08:05:52;;;;;;;9.63;1.65;;;11.70;90.30;;;;;;5049241;28;20032;-72
2023/03/16 08:08:18;;;;;;;7.93;1.10;;;11.80;90.30;;;;;;5053376;28;20025;-73
2023/03/16 08:10:47;;;;;;;9.57;1.60;;;11.80;89.20;;;;;;5044693;28;20029;-72
2023/03/16 08:13:12;;;;;;;8.60;1.30;;;11.90;90.00;;;;;;5039655;28;20440;-73
2023/03/16 08:15:38;;;;;;;8.65;1.40;;;12.00;90.00;;;;;;5045072;28;20032;-72
2023/03/16 08:18:05;;;;;;;13.65;1.35;;;12.00;90.00;;;;;;5039154;28;20032;-73
2023/03/16 08:20:31;;;;;;;4.97;1.15;;;12.00;89.90;;;;;;5036885;28;20474;-73
2023/03/16 08:22:57;;;;;;;3.80;1.30;;;12.00;89.50;;;;;;5042208;28;20029;-74
2023/03/16 08:25:23;;;;;;;3.33;1.05;;;12.00;89.50;;;;;;5034200;28;20029;-72
2023/03/16 08:27:49;;;;;;;4.25;1.30;;;12.10;89.40;;;;;;5041155;28;20025;-72
2023/03/16 08:30:15;;;;;;;4.28;0.98;;;12.20;89.10;;;;;;5047347;28;20025;-75
2023/03/16 08:32:41;;;;;;;5.20;1.20;;;12.20;88.30;;;;;;5045474;28;20406;-73
2023/03/16 08:35:12;;;;;;;2.90;0.98;;;12.30;88.30;;;;;;5034507;28;20025;-73
2023/03/16 08:37:38;;;;;;;4.82;1.10;;;12.30;88.10;;;;;;5033420;28;20391;-75
2023/03/16 08:40:09;;;;;;;5.90;1.55;;;12.30;88.20;;;;;;5036756;28;20025;-72
2023/03/16 08:42:38;;;;;;;6.10;1.70;;;12.30;88.30;;;;;;5039813;28;20061;-72
2023/03/16 08:45:08;;;;;;;4.22;1.15;;;12.30;88.60;;;;;;5047078;28;20022;-74
2023/03/16 08:47:35;;;;;;;2.33;0.70;;;12.30;87.70;;;;;;5053388;28;20037;-76
2023/03/16 08:50:04;;;;;;;4.30;1.08;;;12.30;88.30;;;;;;5049327;28;20025;-71
2023/03/16 08:52:30;;;;;;;6.47;1.10;;;12.30;88.00;;;;;;5051180;28;20036;-74
2023/03/16 08:54:56;;;;;;;9.13;1.50;;;12.30;88.50;;;;;;5050214;28;20021;-73
2023/03/16 08:57:22;;;;;;;10.20;1.38;;;12.40;88.40;;;;;;5053817;28;20025;-73
2023/03/16 08:59:48;;;;;;;9.93;1.50;;;12.40;88.40;;;;;;5049012;28;20020;-75
2023/03/16 09:02:14;;;;;;;11.15;1.40;;;12.40;89.30;;;;;;5041094;28;20374;-72
2023/03/16 09:04:39;;;;;;;6.10;1.00;;;12.50;89.70;;;;;;5046818;28;20397;-73
2023/03/16 09:07:05;;;;;;;6.63;1.10;;;12.50;89.70;;;;;;5050079;28;20075;-73
2023/03/16 09:09:31;;;;;;;5.18;1.20;;;12.50;86.80;;;;;;5044026;28;20036;-73
2023/03/16 09:11:57;;;;;;;10.48;1.40;;;12.50;85.70;;;;;;5043139;28;20041;-74
2023/03/16 09:14:23;;;;;;;5.25;1.25;;;12.50;86.00;;;;;;5051417;28;20029;-73
2023/03/16 09:16:49;;;;;;;4.03;0.80;;;12.50;85.50;;;;;;5051918;28;20507;-75
2023/03/16 09:19:14;;;;;;;6.07;1.10;;;12.50;85.30;;;;;;5051886;28;20029;-74
2023/03/16 09:21:40;;;;;;;5.30;0.93;;;12.60;87.30;;;;;;5052909;28;20458;-72
2023/03/16 09:24:07;;;;;;;5.20;1.00;;;12.60;86.60;;;;;;5053406;28;20025;-74
2023/03/16 09:26:34;;;;;;;17.60;1.20;;;12.60;86.70;;;;;;5048803;28;20080;-75
2023/03/16 09:28:59;;;;;;;10.55;1.90;;;12.60;86.20;;;;;;5038322;28;20056;-72
2023/03/16 09:31:25;;;;;;;17.25;2.10;;;12.60;85.40;;;;;;5051852;28;20021;-74
2023/03/16 09:33:51;;;;;;;8.68;1.30;;;12.60;84.80;;;;;;5046229;28;20112;-74
2023/03/16 09:36:16;;;;;;;5.68;1.52;;;12.70;84.80;;;;;;5043375;28;20048;-74
2023/03/16 09:38:43;;;;;;;7.78;1.42;;;12.70;84.70;;;;;;5053478;28;20036;-74
2023/03/16 09:41:22;;;;;;;5.68;1.23;;;12.70;85.40;;;;;;5052706;28;20477;-73
2023/03/16 09:43:48;;;;;;;4.00;0.90;;;12.80;84.20;;;;;;5052885;28;20029;-74
2023/03/16 09:46:55;;;;;;;4.05;1.48;;;12.80;84.10;;;;;;5051270;28;20371;-74
2023/03/16 09:49:26;;;;;;;7.03;1.33;;;12.80;84.10;;;;;;4990326;28;20038;-74
2023/03/16 09:52:22;;;;;;;7.18;1.05;;;12.80;84.90;;;;;;5025613;28;20099;-74
2023/03/16 09:55:15;;;;;;;3.92;0.90;;;12.80;84.00;;;;;;5052124;28;20041;-73
2023/03/16 09:57:43;;;;;;;4.47;1.42;;;12.90;83.10;;;;;;5051990;28;20470;-76
2023/03/16 10:00:16;;;;;;;9.18;1.42;;;12.90;85.30;;;;;;5051228;28;20025;-74
2023/03/16 10:02:41;;;;;;;9.40;1.25;;;12.90;89.50;;;;;;5039923;28;20036;-75
2023/03/16 10:05:11;;;;;;;4.80;1.10;;;13.00;89.60;;;;;;5046167;28;20029;-73
2023/03/16 10:07:42;;;;;;;5.93;1.25;;;13.00;89.00;;;;;;5042808;28;20052;-72
2023/03/16 10:10:13;;;;;;;17.67;2.63;;;13.10;89.60;;;;;;5047724;28;20017;-70
2023/03/16 10:12:45;;;;;;;17.45;3.63;;;13.10;88.70;;;;;;5047058;28;20129;-72
2023/03/16 10:15:16;;;;;;;11.32;2.17;;;13.10;87.20;;;;;;5050050;28;20052;-72
2023/03/16 10:17:49;;;;;;;15.10;1.58;;;13.10;86.60;;;;;;5050384;28;20039;-71
2023/03/16 10:20:21;;;;;;;19.83;2.22;;;13.10;87.20;;;;;;5048612;28;20071;-72
2023/03/16 10:22:51;;;;;;;24.98;2.55;;;13.20;87.70;;;;;;5051760;28;20048;-73
2023/03/16 10:25:40;;;;;;;14.48;1.77;;;13.20;89.00;;;;;;5051375;28;20478;-72
2023/03/16 10:28:06;;;;;;;13.88;1.92;;;13.30;88.60;;;;;;5052575;28;20395;-77
2023/03/16 10:30:35;;;;;;;10.45;1.38;;;13.30;89.10;;;;;;5052751;28;20470;-76
2023/03/16 10:33:25;;;;;;;11.85;1.88;;;13.40;88.30;;;;;;5048752;28;20033;-72
2023/03/16 10:35:56;;;;;;;10.32;2.05;;;13.40;90.10;;;;;;5050623;28;20104;-79
2023/03/16 10:38:38;;;;;;;11.90;1.33;;;13.40;92.40;;;;;;5049997;28;20032;-71
2023/03/16 10:41:16;;;;;;;9.90;1.23;;;13.70;96.70;;;;;;5048742;28;20040;-86
2023/03/16 10:43:43;;;;;;;9.38;1.50;;;13.90;96.30;;;;;;5052044;28;20040;-73
2023/03/16 10:46:10;;;;;;;9.27;1.42;;;13.90;95.10;;;;;;5050743;28;20044;-72
2023/03/16 10:48:37;;;;;;;4.82;1.02;;;14.00;96.30;;;;;;5051984;28;20429;-72
2023/03/16 10:51:10;;;;;;;4.50;1.02;;;14.10;95.60;;;;;;5050981;28;20074;-76
2023/03/16 10:53:41;;;;;;;4.18;1.25;;;14.10;95.40;;;;;;5048449;28;20064;-72
2023/03/16 10:56:18;;;;;;;4.72;1.10;;;14.20;95.60;;;;;;5046247;28;20025;-75
2023/03/16 10:58:45;;;;;;;10.05;1.42;;;14.20;94.20;;;;;;5051117;28;20051;-72
2023/03/16 11:01:25;;;;;;;11.98;0.90;;;14.20;91.70;;;;;;5048513;28;20029;-74
2023/03/16 11:03:54;;;;;;;11.13;1.50;;;14.30;90.90;;;;;;5047441;28;20389;-72
2023/03/16 11:06:31;;;;;;;5.65;1.20;;;14.30;90.50;;;;;;5056668;28;20373;-72
2023/03/16 11:09:13;;;;;;;3.20;0.70;;;14.40;89.20;;;;;;5051078;28;20025;-74
2023/03/16 11:11:39;;;;;;;3.65;0.95;;;14.40;89.00;;;;;;5045509;28;20033;-74
2023/03/16 11:14:12;;;;;;;3.95;0.75;;;14.40;88.20;;;;;;5053246;28;20029;-72
2023/03/16 11:16:57;;;;;;;11.93;1.50;;;14.50;87.00;;;;;;5054585;28;20029;-71
2023/03/16 11:19:30;;;;;;;22.33;3.22;;;14.40;84.90;;;;;;5056324;28;20037;-72
2023/03/16 11:22:05;;;;;;;31.10;3.70;;;14.40;83.90;;;;;;5055292;28;20071;-74
2023/03/16 11:25:04;;;;;;;18.83;2.95;;;14.40;85.00;;;;;;5047526;28;20132;-73
2023/03/16 11:28:12;;;;;;;10.50;2.13;;;14.50;85.80;;;;;;4998822;28;20036;-73
2023/03/16 11:30:43;;;;;;;8.07;1.63;;;14.40;83.80;;;;;;5052789;28;20032;-74
2023/03/16 11:33:11;;;;;;;22.58;2.72;;;14.40;83.00;;;;;;5045531;28;20371;-80
2023/03/16 11:35:55;;;;;;;13.55;2.13;;;14.40;85.00;;;;;;5047976;28;20025;-74
2023/03/16 11:38:36;;;;;;;14.52;1.73;;;14.40;86.10;;;;;;5049321;28;20434;-73
2023/03/16 11:41:10;;;;;;;15.95;2.15;;;14.40;86.60;;;;;;5047165;28;20486;-73
2023/03/16 11:43:54;;;;;;;11.13;1.80;;;14.40;86.70;;;;;;5047373;28;20474;-72
2023/03/16 11:46:33;;;;;;;15.10;2.33;;;14.50;87.80;;;;;;5045320;28;20390;-72
2023/03/16 11:49:30;;;;;;;14.30;1.67;;;14.50;88.50;;;;;;5042500;28;20033;-72
2023/03/16 11:52:17;;;;;;;7.72;0.90;;;14.50;88.20;;;;;;5051296;28;20045;-71
2023/03/16 11:54:57;;;;;;;8.75;1.35;;;14.50;87.50;;;;;;5051120;28;20087;-72
2023/03/16 11:58:02;;;;;;;9.70;1.35;;;14.50;87.70;;;;;;5040919;28;20033;-71
2023/03/16 12:00:27;;;;;;;9.15;1.27;;;14.50;86.00;;;;;;5027368;28;20496;-71
2023/03/16 12:03:01;;;;;;;8.68;1.45;;;14.50;87.30;;;;;;5050792;28;20112;-71
2023/03/16 12:05:49;;;;;;;6.38;1.00;;;14.50;86.40;;;;;;5053500;28;20024;-72
2023/03/16 12:08:18;;;;;;;5.45;1.50;;;14.60;85.60;;;;;;5023090;28;20490;-71
2023/03/16 12:11:04;;;;;;;6.85;1.25;;;14.60;86.50;;;;;;5046480;28;20021;-72
2023/03/16 12:13:36;;;;;;;6.05;0.93;;;14.60;85.90;;;;;;5041786;28;20135;-72
2023/03/16 12:16:14;;;;;;;4.35;1.60;;;14.60;83.20;;;;;;5046467;28;20108;-72
2023/03/16 12:18:46;;;;;;;3.28;1.02;;;14.60;82.00;;;;;;5068375;28;20104;-72
2023/03/16 12:21:14;;;;;;;6.82;0.95;;;14.60;81.10;;;;;;5048135;28;20066;-73
2023/03/16 12:23:55;;;;;;;2.72;0.68;;;14.60;81.30;;;;;;5043559;28;20520;-71
2023/03/16 12:26:25;;;;;;;2.38;0.70;;;14.70;81.60;;;;;;5042367;28;20482;-71
2023/03/16 12:28:51;;;;;;;6.80;1.23;;;14.70;79.00;;;;;;5050904;28;20051;-71
2023/03/16 12:31:32;;;;;;;6.78;0.77;;;14.70;81.30;;;;;;5051652;28;20025;-72
2023/03/16 12:34:12;;;;;;;3.60;1.27;;;14.70;79.80;;;;;;5044315;28;20060;-72
2023/03/16 12:36:51;;;;;;;7.60;0.95;;;14.70;81.00;;;;;;5046384;28;20444;-71
2023/03/16 12:39:34;;;;;;;4.32;1.08;;;14.80;79.20;;;;;;5036763;28;20021;-71
2023/03/16 12:42:13;;;;;;;4.03;0.60;;;14.80;81.00;;;;;;5036415;28;20033;-72
2023/03/16 12:44:53;;;;;;;2.40;0.60;;;14.80;79.40;;;;;;5035619;28;20037;-72
2023/03/16 12:47:41;;;;;;;4.65;1.08;;;14.80;78.80;;;;;;5043113;28;20041;-71
2023/03/16 12:50:11;;;;;;;2.75;0.52;;;14.80;80.20;;;;;;5045809;28;20071;-71
2023/03/16 12:52:46;;;;;;;4.28;0.80;;;14.80;81.00;;;;;;5036376;28;20063;-71
2023/03/16 12:55:23;;;;;;;3.05;0.73;;;14.90;81.40;;;;;;5037731;28;20028;-71
2023/03/16 12:57:57;;;;;;;6.03;0.65;;;14.90;77.00;;;;;;5040901;28;20125;-71